createdAt,value
2018-03-22T00:02:20.962Z,12.35
2018-03-22T00:04:48.946Z,12.15
2018-03-22T00:07:17.345Z,12.28
2018-03-22T00:09:46.046Z,12.36
2018-03-22T00:12:14.631Z,12.38
2018-03-22T00:14:43.210Z,12.33
2018-03-22T00:17:11.542Z,12.37
2018-03-22T00:19:40.373Z,12.37
2018-03-22T00:22:08.753Z,12.33
2018-03-22T00:24:36.818Z,12.39
2018-03-22T00:27:04.859Z,12.35
2018-03-22T00:29:32.819Z,12.37
2018-03-22T00:32:00.740Z,12.35
2018-03-22T00:34:28.755Z,12.37
2018-03-22T00:36:56.741Z,12.40
2018-03-22T00:39:25.148Z,12.14
2018-03-22T00:41:53.816Z,11.95
2018-03-22T00:44:21.788Z,11.51
2018-03-22T00:46:49.841Z,11.75
2018-03-22T00:49:17.980Z,11.63
2018-03-22T00:51:46.009Z,11.70
2018-03-22T00:54:13.966Z,11.54
2018-03-22T00:56:41.938Z,11.63
2018-03-22T00:59:09.947Z,11.81
2018-03-22T01:01:37.878Z,12.01
2018-03-22T01:04:05.749Z,12.14
2018-03-22T01:06:33.680Z,11.88
2018-03-22T01:09:01.592Z,11.75
2018-03-22T01:11:29.553Z,11.83
2018-03-22T01:13:57.477Z,11.99
2018-03-22T01:16:25.490Z,12.08
2018-03-22T01:18:53.486Z,12.00
2018-03-22T01:21:21.478Z,11.87
2018-03-22T01:23:49.490Z,12.06
2018-03-22T01:26:17.451Z,12.18
2018-03-22T01:28:45.394Z,12.26
2018-03-22T01:31:13.321Z,12.26
2018-03-22T01:33:41.294Z,12.30
2018-03-22T01:36:09.342Z,12.29
2018-03-22T01:38:37.293Z,12.40
2018-03-22T01:41:05.304Z,12.35
2018-03-22T01:43:34.269Z,12.34
2018-03-22T01:46:02.667Z,12.19
2018-03-22T01:48:31.344Z,12.08
2018-03-22T01:50:59.344Z,12.25
2018-03-22T01:53:27.281Z,12.18
2018-03-22T01:55:55.194Z,12.25
2018-03-22T01:58:23.171Z,12.16
2018-03-22T02:00:51.174Z,12.12
2018-03-22T02:03:19.160Z,12.10
2018-03-22T02:05:47.151Z,12.16
2018-03-22T02:08:15.119Z,12.13
2018-03-22T02:10:43.092Z,12.14
2018-03-22T02:13:10.981Z,12.22
2018-03-22T02:15:38.978Z,12.15
2018-03-22T02:18:06.956Z,11.80
2018-03-22T02:20:35.238Z,11.71
2018-03-22T02:23:03.607Z,12.13
2018-03-22T02:25:32.396Z,12.24
2018-03-22T02:28:00.361Z,12.17
2018-03-22T02:30:28.299Z,12.19
2018-03-22T02:32:56.264Z,11.64
2018-03-22T02:35:24.358Z,11.39
2018-03-22T02:37:52.657Z,11.75
2018-03-22T02:40:20.618Z,11.85
2018-03-22T02:42:48.677Z,11.91
2018-03-22T02:45:16.958Z,12.00
2018-03-22T02:47:44.962Z,11.67
2018-03-22T02:50:12.893Z,11.54
2018-03-22T02:52:40.844Z,11.18
2018-03-22T02:55:09.551Z,11.02
2018-03-22T02:57:37.737Z,11.13
2018-03-22T03:00:06.113Z,11.03
2018-03-22T03:02:34.638Z,11.23
2018-03-22T03:05:03.376Z,11.49
2018-03-22T03:07:31.953Z,11.68
2018-03-22T03:10:00.433Z,11.62
2018-03-22T03:12:29.163Z,11.74
2018-03-22T03:14:57.601Z,11.47
2018-03-22T03:17:26.303Z,11.08
2018-03-22T03:19:54.852Z,11.41
2018-03-22T03:22:22.846Z,11.60
2018-03-22T03:24:50.851Z,11.46
2018-03-22T03:27:18.818Z,11.59
2018-03-22T03:29:46.796Z,11.63
2018-03-22T03:32:14.711Z,11.77
2018-03-22T03:34:43.393Z,11.51
2018-03-22T03:37:11.770Z,11.32
2018-03-22T03:39:39.766Z,11.56
2018-03-22T03:42:08.221Z,11.60
2018-03-22T03:44:36.807Z,11.41
2018-03-22T03:47:05.503Z,11.48
2018-03-22T03:49:33.977Z,11.48
2018-03-22T03:52:01.999Z,11.40
2018-03-22T03:54:29.941Z,11.33
2018-03-22T03:56:58.401Z,11.60
2018-03-22T03:59:27.365Z,11.43
2018-03-22T04:01:55.371Z,10.98
2018-03-22T04:04:23.378Z,10.77
2018-03-22T04:06:51.312Z,10.87
2018-03-22T04:09:19.771Z,10.74
2018-03-22T04:11:48.273Z,10.62
2018-03-22T04:14:16.263Z,10.73
2018-03-22T04:16:44.796Z,11.18
2018-03-22T04:19:12.816Z,11.25
2018-03-22T04:21:40.786Z,10.95
2018-03-22T04:24:08.737Z,11.23
2018-03-22T04:26:36.689Z,11.55
2018-03-22T04:29:04.664Z,11.03
2018-03-22T04:31:33.330Z,11.15
2018-03-22T04:34:01.330Z,11.27
2018-03-22T04:36:29.939Z,11.40
2018-03-22T04:38:57.941Z,11.46
2018-03-22T04:41:25.910Z,11.44
2018-03-22T04:43:53.893Z,10.70
2018-03-22T04:46:21.832Z,11.37
2018-03-22T04:48:50.247Z,11.61
2018-03-22T04:51:18.197Z,11.75
2018-03-22T04:53:46.075Z,11.43
2018-03-22T04:56:14.048Z,11.13
2018-03-22T04:58:42.036Z,11.06
2018-03-22T05:01:10.685Z,11.10
2018-03-22T05:03:39.265Z,11.19
2018-03-22T05:06:07.197Z,10.73
2018-03-22T05:08:35.718Z,10.88
2018-03-22T05:11:04.301Z,11.18
2018-03-22T05:13:32.206Z,11.15
2018-03-22T05:16:00.140Z,11.02
2018-03-22T05:18:28.070Z,10.77
2018-03-22T05:20:56.015Z,10.97
2018-03-22T05:23:23.948Z,10.68
2018-03-22T05:25:53.069Z,10.79
2018-03-22T05:28:21.040Z,10.66
2018-03-22T05:30:49.007Z,10.42
2018-03-22T05:33:17.139Z,9.66
2018-03-22T05:35:46.033Z,10.79
2018-03-22T05:38:14.309Z,11.13
2018-03-22T05:40:42.281Z,11.33
2018-03-22T05:43:10.301Z,11.41
2018-03-22T05:45:38.343Z,11.40
2018-03-22T05:48:06.301Z,10.96
2018-03-22T05:50:34.947Z,11.15
2018-03-22T05:53:03.455Z,11.07
2018-03-22T05:55:31.936Z,11.15
2018-03-22T05:57:59.885Z,11.40
2018-03-22T06:00:27.862Z,11.47
2018-03-22T06:02:55.820Z,11.56
2018-03-22T06:05:24.214Z,11.24
2018-03-22T06:07:52.232Z,10.95
2018-03-22T06:10:20.126Z,10.49
2018-03-22T06:12:48.101Z,10.58
2018-03-22T06:15:16.072Z,10.80
2018-03-22T06:17:43.990Z,11.07
2018-03-22T06:20:11.986Z,10.99
2018-03-22T06:22:39.947Z,10.50
2018-03-22T06:25:07.972Z,10.99
2018-03-22T06:27:35.979Z,9.91
2018-03-22T06:30:04.033Z,10.08
2018-03-22T06:32:31.973Z,9.58
2018-03-22T06:34:59.970Z,9.83
2018-03-22T06:37:27.934Z,9.70
2018-03-22T06:39:55.926Z,10.01
2018-03-22T06:42:23.877Z,9.68
2018-03-22T06:44:51.888Z,9.52
2018-03-22T06:47:19.842Z,10.10
2018-03-22T06:49:47.913Z,10.79
2018-03-22T06:52:16.126Z,10.89
2018-03-22T06:54:44.061Z,10.56
2018-03-22T06:57:12.031Z,10.66
2018-03-22T06:59:39.971Z,10.61
2018-03-22T07:02:07.954Z,9.62
2018-03-22T07:04:35.869Z,9.28
2018-03-22T07:07:03.803Z,9.02
2018-03-22T07:09:31.759Z,9.39
2018-03-22T07:11:59.712Z,9.40
2018-03-22T07:14:27.650Z,9.67
2018-03-22T07:16:55.666Z,10.04
2018-03-22T07:19:23.641Z,10.72
2018-03-22T07:21:51.551Z,9.90
2018-03-22T07:24:19.528Z,10.50
2018-03-22T07:26:47.501Z,11.09
2018-03-22T07:29:15.525Z,10.71
2018-03-22T07:31:43.483Z,10.86
2018-03-22T07:34:11.441Z,10.90
2018-03-22T07:36:39.405Z,11.29
2018-03-22T07:39:07.417Z,10.73
2018-03-22T07:41:35.362Z,10.78
2018-03-22T07:44:08.796Z,10.49
2018-03-22T07:46:36.732Z,10.29
2018-03-22T07:49:04.740Z,10.92
2018-03-22T07:51:32.726Z,10.95
2018-03-22T07:54:01.286Z,10.65
2018-03-22T07:56:29.225Z,11.09
2018-03-22T07:58:57.246Z,11.07
2018-03-22T08:01:25.191Z,10.90
2018-03-22T08:03:53.180Z,10.58
2018-03-22T08:06:21.163Z,10.60
2018-03-22T08:08:49.133Z,10.66
2018-03-22T08:11:17.142Z,10.77
2018-03-22T08:13:45.213Z,10.46
2018-03-22T08:16:13.309Z,10.71
2018-03-22T08:18:41.179Z,10.97
2018-03-22T08:21:09.092Z,10.15
2018-03-22T08:23:37.134Z,10.22
2018-03-22T08:26:05.072Z,10.55
2018-03-22T08:28:33.031Z,10.32
2018-03-22T08:31:01.052Z,9.39
2018-03-22T08:33:29.077Z,9.86
2018-03-22T08:35:57.013Z,9.41
2018-03-22T08:38:24.949Z,9.52
2018-03-22T08:40:53.004Z,10.29
2018-03-22T08:43:20.990Z,10.14
2018-03-22T08:45:49.046Z,9.62
2018-03-22T08:48:17.090Z,9.86
2018-03-22T08:50:45.101Z,9.03
2018-03-22T08:53:13.069Z,9.32
2018-03-22T08:55:41.710Z,9.47
2018-03-22T08:58:09.681Z,10.11
2018-03-22T09:00:37.678Z,9.98
2018-03-22T09:03:05.721Z,10.03
2018-03-22T09:05:33.698Z,9.75
2018-03-22T09:08:01.715Z,9.73
2018-03-22T09:10:29.781Z,9.71
2018-03-22T09:12:57.745Z,9.89
2018-03-22T09:15:25.757Z,10.55
2018-03-22T09:17:53.746Z,10.20
2018-03-22T09:20:22.277Z,10.62
2018-03-22T09:22:50.228Z,10.75
2018-03-22T09:25:19.420Z,11.01
2018-03-22T09:27:47.401Z,10.36
2018-03-22T09:30:15.365Z,10.24
2018-03-22T09:32:43.298Z,10.07
2018-03-22T09:35:11.286Z,10.09
2018-03-22T09:37:39.238Z,10.43
2018-03-22T09:40:07.241Z,10.10
2018-03-22T09:42:35.238Z,10.01
2018-03-22T09:45:03.414Z,10.28
2018-03-22T09:47:31.812Z,9.75
2018-03-22T09:50:00.093Z,9.78
2018-03-22T09:52:28.773Z,9.59
2018-03-22T09:54:56.732Z,9.14
2018-03-22T09:57:25.455Z,9.51
2018-03-22T09:59:54.119Z,9.51
2018-03-22T10:02:22.589Z,8.80
2018-03-22T10:04:50.988Z,9.29
2018-03-22T10:07:19.553Z,9.10
2018-03-22T10:09:47.937Z,8.90
2018-03-22T10:12:16.511Z,9.58
2018-03-22T10:14:44.997Z,10.25
2018-03-22T10:17:13.169Z,10.63
2018-03-22T10:19:41.656Z,10.59
2018-03-22T10:22:10.037Z,10.99
2018-03-22T10:24:38.510Z,10.63
2018-03-22T10:27:07.077Z,10.20
2018-03-22T10:29:35.673Z,10.61
2018-03-22T10:32:04.157Z,10.66
2018-03-22T10:34:32.661Z,10.44
2018-03-22T10:37:01.216Z,10.50
2018-03-22T10:39:29.705Z,10.23
2018-03-22T10:41:57.987Z,10.24
2018-03-22T10:44:26.062Z,9.90
2018-03-22T10:46:54.018Z,10.38
2018-03-22T10:49:21.941Z,9.76
2018-03-22T10:51:49.935Z,10.06
2018-03-22T10:54:18.006Z,10.41
2018-03-22T10:56:46.769Z,10.06
2018-03-22T10:59:15.738Z,10.16
2018-03-22T11:01:49.665Z,10.58
2018-03-22T11:04:18.044Z,10.81
2018-03-22T11:06:46.773Z,9.93
2018-03-22T11:09:15.046Z,10.42
2018-03-22T11:11:43.435Z,10.95
2018-03-22T11:14:11.892Z,9.95
2018-03-22T11:16:40.282Z,9.85
2018-03-22T11:19:08.972Z,9.75
2018-03-22T11:21:37.253Z,10.27
2018-03-22T11:24:05.730Z,10.58
2018-03-22T11:26:34.123Z,10.42
2018-03-22T11:29:02.095Z,9.78
2018-03-22T11:31:30.759Z,9.90
2018-03-22T11:33:59.342Z,9.76
2018-03-22T11:36:27.817Z,9.93
2018-03-22T11:38:56.209Z,10.29
2018-03-22T11:41:24.609Z,9.95
2018-03-22T11:43:52.666Z,9.81
2018-03-22T11:46:21.227Z,9.76
2018-03-22T11:48:49.453Z,9.71
2018-03-22T11:51:17.990Z,9.77
2018-03-22T11:53:46.544Z,9.48
2018-03-22T11:56:15.362Z,9.06
2018-03-22T11:58:44.046Z,9.03
2018-03-22T12:01:12.769Z,9.65
2018-03-22T12:03:41.103Z,9.38
2018-03-22T12:06:09.890Z,9.62
2018-03-22T12:08:38.682Z,8.89
2018-03-22T12:11:07.300Z,9.59
2018-03-22T12:13:35.641Z,9.99
2018-03-22T12:16:04.125Z,10.06
2018-03-22T12:18:32.610Z,10.27
2018-03-22T12:21:00.606Z,9.48
2018-03-22T12:23:28.539Z,9.57
2018-03-22T12:25:57.070Z,9.00
2018-03-22T12:28:25.706Z,9.14
2018-03-22T12:30:54.290Z,9.05
2018-03-22T12:33:22.772Z,9.06
2018-03-22T12:35:51.560Z,9.72
2018-03-22T12:38:20.041Z,9.92
2018-03-22T12:40:48.413Z,9.51
2018-03-22T12:43:16.413Z,9.87
2018-03-22T12:45:44.962Z,10.14
2018-03-22T12:48:13.241Z,9.49
2018-03-22T12:50:42.030Z,9.60
2018-03-22T12:53:10.615Z,9.45
2018-03-22T12:55:39.016Z,9.20
2018-03-22T12:58:07.574Z,8.68
2018-03-22T13:00:36.055Z,8.23
2018-03-22T13:03:04.946Z,8.62
2018-03-22T13:05:33.466Z,8.72
2018-03-22T13:08:02.314Z,9.39
2018-03-22T13:10:30.849Z,9.08
2018-03-22T13:12:59.331Z,9.42
2018-03-22T13:15:27.954Z,9.33
2018-03-22T13:17:56.130Z,8.87
2018-03-22T13:20:24.392Z,9.59
2018-03-22T13:22:52.681Z,9.84
2018-03-22T13:25:21.265Z,9.69
2018-03-22T13:27:49.540Z,9.31
2018-03-22T13:30:18.231Z,9.71
2018-03-22T13:32:46.710Z,10.18
2018-03-22T13:35:14.987Z,10.21
2018-03-22T13:37:43.467Z,10.39
2018-03-22T13:40:11.987Z,10.34
2018-03-22T13:42:40.742Z,10.49
2018-03-22T13:45:09.633Z,10.48
2018-03-22T13:47:37.901Z,10.41
2018-03-22T13:50:05.861Z,10.59
2018-03-22T13:52:33.845Z,10.62
2018-03-22T13:55:01.836Z,10.63
2018-03-22T13:57:29.810Z,10.50
2018-03-22T13:59:57.849Z,10.38
2018-03-22T14:02:25.806Z,10.41
2018-03-22T14:04:54.085Z,10.26
2018-03-22T14:07:22.133Z,10.06
2018-03-22T14:09:50.114Z,9.90
2018-03-22T14:12:18.064Z,9.80
2018-03-22T14:14:46.062Z,9.79
2018-03-22T14:17:14.081Z,9.72
2018-03-22T14:19:41.996Z,10.19
2018-03-22T14:22:09.909Z,10.14
2018-03-22T14:24:38.285Z,10.04
2018-03-22T14:27:06.250Z,10.25
2018-03-22T14:29:34.700Z,10.24
2018-03-22T14:32:02.649Z,9.95
2018-03-22T14:34:30.576Z,10.29
2018-03-22T14:36:58.570Z,10.62
2018-03-22T14:39:26.530Z,10.31
2018-03-22T14:41:54.542Z,10.10
2018-03-22T14:44:22.589Z,9.57
2018-03-22T14:46:50.619Z,9.69
2018-03-22T14:49:18.589Z,8.73
2018-03-22T14:51:46.714Z,8.37
2018-03-22T14:54:14.618Z,8.38
2018-03-22T14:56:42.634Z,8.36
2018-03-22T14:59:10.638Z,8.13
2018-03-22T15:01:38.637Z,8.42
2018-03-22T15:04:06.573Z,8.77
2018-03-22T15:06:34.714Z,9.39
2018-03-22T15:09:02.689Z,9.67
2018-03-22T15:11:30.595Z,9.66
2018-03-22T15:13:58.590Z,10.09
2018-03-22T15:16:26.587Z,10.19
2018-03-22T15:18:54.538Z,9.26
2018-03-22T15:21:22.496Z,9.67
2018-03-22T15:23:50.450Z,9.80
2018-03-22T15:26:18.434Z,10.16
2018-03-22T15:28:46.458Z,9.82
2018-03-22T15:31:14.445Z,9.68
2018-03-22T15:33:42.425Z,9.91
2018-03-22T15:36:10.451Z,10.32
2018-03-22T15:38:38.397Z,10.00
2018-03-22T15:41:06.318Z,9.68
2018-03-22T15:43:34.322Z,9.59
2018-03-22T15:46:02.302Z,10.01
2018-03-22T15:48:30.299Z,9.89
2018-03-22T15:50:58.254Z,9.60
2018-03-22T15:53:26.306Z,9.97
2018-03-22T15:55:54.216Z,9.70
2018-03-22T15:58:22.192Z,9.65
2018-03-22T16:00:50.154Z,9.50
2018-03-22T16:03:17.950Z,9.81
2018-03-22T16:05:45.935Z,9.80
2018-03-22T16:08:14.242Z,9.81
2018-03-22T16:10:42.103Z,9.83
2018-03-22T16:13:10.066Z,8.96
2018-03-22T16:15:37.978Z,8.96
2018-03-22T16:18:05.960Z,9.19
2018-03-22T16:20:33.990Z,7.83
2018-03-22T16:23:02.038Z,7.56
2018-03-22T16:25:29.978Z,7.91
2018-03-22T16:27:57.922Z,8.81
2018-03-22T16:30:25.901Z,9.12
2018-03-22T16:32:53.985Z,9.04
2018-03-22T16:35:21.939Z,9.03
2018-03-22T16:37:49.969Z,9.21
2018-03-22T16:40:17.910Z,9.41
2018-03-22T16:42:45.890Z,9.11
2018-03-22T16:45:13.861Z,9.24
2018-03-22T16:47:41.877Z,8.58
2018-03-22T16:50:09.801Z,8.37
2018-03-22T16:52:37.775Z,8.33
2018-03-22T16:55:05.757Z,8.10
2018-03-22T16:57:33.747Z,8.18
2018-03-22T17:00:01.913Z,7.61
2018-03-22T17:02:30.036Z,8.69
2018-03-22T17:04:58.044Z,8.02
2018-03-22T17:07:25.986Z,7.85
2018-03-22T17:09:54.036Z,7.34
2018-03-22T17:12:22.026Z,7.50
2018-03-22T17:14:50.029Z,8.46
2018-03-22T17:17:17.981Z,7.39
2018-03-22T17:19:45.970Z,8.00
2018-03-22T17:22:14.011Z,8.53
2018-03-22T17:24:41.969Z,8.99
2018-03-22T17:27:09.913Z,9.14
2018-03-22T17:29:37.917Z,8.64
2018-03-22T17:32:05.917Z,8.87
2018-03-22T17:34:33.931Z,8.06
2018-03-22T17:37:01.925Z,8.33
2018-03-22T17:39:29.890Z,8.15
2018-03-22T17:41:57.846Z,8.71
2018-03-22T17:44:25.853Z,9.08
2018-03-22T17:46:53.818Z,8.78
2018-03-22T17:49:21.828Z,8.20
2018-03-22T17:51:49.833Z,8.04
2018-03-22T17:54:17.861Z,7.67
2018-03-22T17:56:45.818Z,7.95
2018-03-22T17:59:13.777Z,7.10
2018-03-22T18:01:41.738Z,7.37
2018-03-22T18:04:09.623Z,7.59
2018-03-22T18:06:37.589Z,7.92
2018-03-22T18:09:05.693Z,7.45
2018-03-22T18:11:34.006Z,7.10
2018-03-22T18:14:02.013Z,7.01
2018-03-22T18:16:30.018Z,6.90
2018-03-22T18:18:57.926Z,6.60
2018-03-22T18:21:25.863Z,7.30
2018-03-22T18:23:53.860Z,7.25
2018-03-22T18:26:21.882Z,7.74
2018-03-22T18:28:49.942Z,8.19
2018-03-22T18:31:17.930Z,8.24
2018-03-22T18:33:45.818Z,8.16
2018-03-22T18:36:13.796Z,7.79
2018-03-22T18:38:41.833Z,7.99
2018-03-22T18:41:09.819Z,8.10
2018-03-22T18:43:38.219Z,7.66
2018-03-22T18:46:06.326Z,7.66
2018-03-22T18:48:34.358Z,7.71
2018-03-22T18:51:02.317Z,8.04
2018-03-22T18:53:30.247Z,8.25
2018-03-22T18:55:58.183Z,7.77
2018-03-22T18:58:26.146Z,7.97
2018-03-22T19:00:53.936Z,7.79
2018-03-22T19:03:21.904Z,7.67
2018-03-22T19:05:49.886Z,6.82
2018-03-22T19:08:17.906Z,7.32
2018-03-22T19:10:45.842Z,6.59
2018-03-22T19:13:14.098Z,6.26
2018-03-22T19:15:42.083Z,6.42
2018-03-22T19:18:10.033Z,6.65
2018-03-22T19:20:37.986Z,6.32
2018-03-22T19:23:05.934Z,6.83
2018-03-22T19:25:33.942Z,7.12
2018-03-22T19:28:01.992Z,7.12
2018-03-22T19:30:29.942Z,6.90
2018-03-22T19:32:58.031Z,7.43
2018-03-22T19:35:26.045Z,7.65
2018-03-22T19:37:53.996Z,8.01
2018-03-22T19:40:21.908Z,7.49
2018-03-22T19:42:49.941Z,7.41
2018-03-22T19:45:17.838Z,7.75
2018-03-22T19:47:45.851Z,8.00
2018-03-22T19:50:13.839Z,8.08
2018-03-22T19:52:41.825Z,7.89
2018-03-22T19:55:09.800Z,7.75
2018-03-22T19:57:37.735Z,7.76
2018-03-22T20:00:05.763Z,7.93
2018-03-22T20:02:33.769Z,7.55
2018-03-22T20:05:01.722Z,7.69
2018-03-22T20:07:29.707Z,8.16
2018-03-22T20:09:57.778Z,8.12
2018-03-22T20:12:25.870Z,7.72
2018-03-22T20:14:54.195Z,7.73
2018-03-22T20:17:22.180Z,7.24
2018-03-22T20:19:50.168Z,6.74
2018-03-22T20:22:18.141Z,7.14
2018-03-22T20:24:46.122Z,7.04
2018-03-22T20:27:14.144Z,7.44
2018-03-22T20:29:42.025Z,6.87
2018-03-22T20:32:10.038Z,7.36
2018-03-22T20:34:38.025Z,7.71
2018-03-22T20:37:05.970Z,7.39
2018-03-22T20:39:34.041Z,7.74
2018-03-22T20:42:02.005Z,7.38
2018-03-22T20:44:29.941Z,6.89
2018-03-22T20:46:57.840Z,6.17
2018-03-22T20:49:25.804Z,5.69
2018-03-22T20:51:53.756Z,6.16
2018-03-22T20:54:21.781Z,5.75
2018-03-22T20:56:49.769Z,5.81
2018-03-22T20:59:17.730Z,5.97
2018-03-22T21:01:45.646Z,6.93
2018-03-22T21:04:13.609Z,6.79
2018-03-22T21:06:41.590Z,7.06
2018-03-22T21:09:09.565Z,7.26
2018-03-22T21:11:37.473Z,6.68
2018-03-22T21:14:05.431Z,6.40
2018-03-22T21:16:33.605Z,6.71
2018-03-22T21:19:01.523Z,7.30
2018-03-22T21:21:29.502Z,7.59
2018-03-22T21:23:57.510Z,7.83
2018-03-22T21:26:25.441Z,7.43
2018-03-22T21:28:53.389Z,7.80
2018-03-22T21:31:21.372Z,7.41
2018-03-22T21:33:49.352Z,6.96
2018-03-22T21:36:17.402Z,7.06
2018-03-22T21:38:45.407Z,6.98
2018-03-22T21:41:13.392Z,7.59
2018-03-22T21:46:47.310Z,7.56
2018-03-22T21:49:15.281Z,7.67
2018-03-22T21:51:49.014Z,6.90
2018-03-22T21:54:17.007Z,6.27
2018-03-22T21:56:44.929Z,6.06
2018-03-22T21:59:12.917Z,6.40
2018-03-22T22:01:40.865Z,6.46
2018-03-22T22:04:08.805Z,7.15
2018-03-22T22:06:36.785Z,6.71
2018-03-22T22:09:04.867Z,7.34
2018-03-22T22:11:32.817Z,6.44
2018-03-22T22:14:00.704Z,6.97
2018-03-22T22:16:28.661Z,6.38
2018-03-22T22:18:57.027Z,6.88
2018-03-22T22:21:24.915Z,7.36
2018-03-22T22:23:53.628Z,7.12
2018-03-22T22:26:21.547Z,7.11
2018-03-22T22:28:49.513Z,7.03
2018-03-22T22:31:17.465Z,7.10
2018-03-22T22:33:45.474Z,5.86
2018-03-22T22:36:13.470Z,5.91
2018-03-22T22:38:41.444Z,6.31
2018-03-22T22:41:09.407Z,6.04
2018-03-22T22:43:37.367Z,5.36
2018-03-22T22:46:05.342Z,5.51
2018-03-22T22:48:33.319Z,5.79
2018-03-22T22:51:01.322Z,6.37
2018-03-22T22:53:29.270Z,6.86
2018-03-22T22:55:57.199Z,6.22
2018-03-22T22:58:25.182Z,5.75
2018-03-22T23:00:53.202Z,6.70
2018-03-22T23:03:21.230Z,7.22
2018-03-22T23:05:49.163Z,6.84
2018-03-22T23:08:17.145Z,5.84
2018-03-22T23:10:45.080Z,5.16
2018-03-22T23:13:13.073Z,6.21
2018-03-22T23:15:40.945Z,6.26
2018-03-22T23:18:08.885Z,6.39
2018-03-22T23:20:37.356Z,6.80
2018-03-22T23:23:05.381Z,6.82
2018-03-22T23:25:33.330Z,6.95
2018-03-22T23:28:01.260Z,6.84
2018-03-22T23:30:29.229Z,6.50
2018-03-22T23:32:57.266Z,6.73
2018-03-22T23:35:25.231Z,5.76
2018-03-22T23:37:53.198Z,5.50
2018-03-22T23:40:21.205Z,5.85
2018-03-22T23:42:49.201Z,5.27
2018-03-22T23:45:17.120Z,4.76
2018-03-22T23:47:45.038Z,5.87
2018-03-22T23:50:12.974Z,6.18
2018-03-22T23:52:40.917Z,4.91
2018-03-22T23:55:08.888Z,5.04
2018-03-22T23:57:36.854Z,4.90
